createdAt,value
2023-04-06T00:00:33.898Z,61.42
2023-04-06T00:02:35.763Z,61.27
2023-04-06T00:04:37.661Z,61.28
2023-04-06T00:06:39.232Z,61.19
2023-04-06T00:08:42.569Z,61.71
2023-04-06T00:10:46.508Z,61.35
2023-04-06T00:12:48.135Z,61.13
2023-04-06T00:14:50.032Z,61.67
2023-04-06T00:16:54.340Z,61.30
2023-04-06T00:18:56.031Z,61.44
2023-04-06T00:20:57.689Z,61.11
2023-04-06T00:22:59.300Z,61.17
2023-04-06T00:25:02.628Z,61.77
2023-04-06T00:27:04.678Z,61.34
2023-04-06T00:29:06.432Z,61.56
2023-04-06T00:31:08.593Z,62.15
2023-04-06T00:33:10.356Z,62.09
2023-04-06T00:35:12.216Z,62.34
2023-04-06T00:37:14.043Z,62.38
2023-04-06T00:39:16.776Z,62.49
2023-04-06T00:41:21.476Z,62.19
2023-04-06T00:43:23.305Z,62.42
2023-04-06T00:45:25.076Z,61.97
2023-04-06T00:47:27.118Z,62.93
2023-04-06T00:49:28.946Z,62.15
2023-04-06T00:51:30.814Z,62.47
2023-04-06T00:53:32.461Z,62.60
2023-04-06T00:55:34.339Z,62.91
2023-04-06T00:57:37.526Z,62.71
2023-04-06T00:59:39.570Z,62.66
2023-04-06T01:01:41.526Z,62.34
2023-04-06T01:03:43.884Z,62.70
2023-04-06T01:05:45.539Z,63.17
2023-04-06T01:07:47.236Z,63.08
2023-04-06T01:09:49.069Z,62.98
2023-04-06T01:11:50.710Z,63.13
2023-04-06T01:13:54.295Z,62.56
2023-04-06T01:15:56.618Z,63.18
2023-04-06T01:17:58.765Z,62.71
2023-04-06T01:20:00.428Z,63.11
2023-04-06T01:22:02.023Z,63.19
2023-04-06T01:24:06.335Z,63.30
2023-04-06T01:26:08.235Z,62.34
2023-04-06T01:28:09.881Z,62.47
2023-04-06T01:30:12.479Z,62.92
2023-04-06T01:32:14.374Z,62.92
2023-04-06T01:34:16.451Z,62.82
2023-04-06T01:36:18.006Z,62.55
2023-04-06T01:38:20.051Z,62.42
2023-04-06T01:40:23.619Z,62.52
2023-04-06T01:42:25.205Z,62.70
2023-04-06T01:44:27.257Z,62.35
2023-04-06T01:46:29.140Z,62.42
2023-04-06T01:48:31.376Z,62.73
2023-04-06T01:50:33.197Z,62.15
2023-04-06T01:52:36.489Z,62.33
2023-04-06T01:54:38.063Z,62.90
2023-04-06T01:56:41.516Z,62.21
2023-04-06T01:58:43.554Z,62.60
2023-04-06T02:00:45.137Z,62.76
2023-04-06T02:02:46.734Z,62.53
2023-04-06T02:04:50.113Z,62.25
2023-04-06T02:06:51.672Z,62.70
2023-04-06T02:08:53.207Z,62.22
2023-04-06T02:10:54.759Z,62.64
2023-04-06T02:12:58.173Z,62.14
2023-04-06T02:15:00.015Z,62.32
2023-04-06T02:17:01.875Z,62.05
2023-04-06T02:19:03.452Z,62.62
2023-04-06T02:21:05.016Z,62.20
2023-04-06T02:23:06.613Z,61.97
2023-04-06T02:25:08.970Z,62.54
2023-04-06T02:27:12.543Z,62.03
2023-04-06T02:29:15.454Z,62.47
2023-04-06T02:31:17.113Z,62.36
2023-04-06T02:33:18.790Z,62.02
2023-04-06T02:35:23.557Z,62.48
2023-04-06T02:37:25.389Z,62.16
2023-04-06T02:39:27.247Z,62.86
2023-04-06T02:41:29.561Z,63.05
2023-04-06T02:43:31.640Z,62.95
2023-04-06T02:45:35.043Z,62.89
2023-04-06T02:47:36.767Z,63.03
2023-04-06T02:49:38.863Z,62.94
2023-04-06T02:51:40.444Z,62.59
2023-04-06T02:53:42.037Z,62.40
2023-04-06T02:55:44.171Z,62.42
2023-04-06T02:57:45.855Z,62.40
2023-04-06T02:59:47.698Z,62.96
2023-04-06T03:01:50.778Z,63.37
2023-04-06T03:03:52.633Z,63.00
2023-04-06T03:05:54.490Z,63.12
2023-04-06T03:07:56.354Z,63.12
2023-04-06T03:09:58.114Z,63.42
2023-04-06T03:11:59.633Z,63.32
2023-04-06T03:14:01.483Z,63.01
2023-04-06T03:16:03.354Z,63.54
2023-04-06T03:18:06.753Z,63.13
2023-04-06T03:20:09.403Z,63.89
2023-04-06T03:22:11.519Z,63.76
2023-04-06T03:24:13.359Z,63.67
2023-04-06T03:26:15.405Z,64.47
2023-04-06T03:28:17.271Z,64.04
2023-04-06T03:30:19.122Z,63.67
2023-04-06T03:32:21.214Z,63.66
2023-04-06T03:34:24.376Z,64.64
2023-04-06T03:36:26.187Z,65.05
2023-04-06T03:38:27.876Z,64.70
2023-04-06T03:40:29.681Z,64.49
2023-04-06T03:42:34.154Z,65.01
2023-04-06T03:44:36.102Z,64.34
2023-04-06T03:46:38.395Z,64.42
2023-04-06T03:48:39.973Z,65.07
2023-04-06T03:50:43.088Z,64.86
2023-04-06T03:52:45.005Z,65.01
2023-04-06T03:54:46.613Z,65.49
2023-04-06T03:56:48.745Z,64.74
2023-04-06T03:58:50.330Z,65.10
2023-04-06T04:00:52.485Z,65.08
2023-04-06T04:02:57.253Z,65.06
2023-04-06T04:04:58.987Z,65.08
2023-04-06T04:07:02.320Z,65.02
2023-04-06T04:09:03.917Z,64.82
2023-04-06T04:11:05.561Z,64.88
2023-04-06T04:13:09.994Z,64.83
2023-04-06T04:15:11.659Z,65.25
2023-04-06T04:17:13.634Z,64.97
2023-04-06T04:19:15.258Z,65.42
2023-04-06T04:21:17.052Z,65.19
2023-04-06T04:23:20.226Z,64.55
2023-04-06T04:25:21.824Z,64.93
2023-04-06T04:27:23.725Z,65.03
2023-04-06T04:29:25.527Z,65.71
2023-04-06T04:31:27.220Z,65.15
2023-04-06T04:33:28.852Z,65.44
2023-04-06T04:35:31.424Z,65.45
2023-04-06T04:37:33.232Z,65.95
2023-04-06T04:39:36.775Z,65.64
2023-04-06T04:41:38.681Z,65.81
2023-04-06T04:43:40.215Z,66.01
2023-04-06T04:45:41.848Z,66.02
2023-04-06T04:47:43.842Z,66.37
2023-04-06T04:49:45.945Z,66.65
2023-04-06T04:51:48.339Z,66.57
2023-04-06T04:53:50.178Z,66.54
2023-04-06T04:55:53.257Z,66.57
2023-04-06T04:57:54.808Z,66.85
2023-04-06T04:59:58.043Z,66.29
2023-04-06T05:02:00.038Z,66.54
2023-04-06T05:04:02.226Z,67.24
2023-04-06T05:06:04.512Z,66.82
2023-04-06T05:08:06.818Z,66.87
2023-04-06T05:10:09.301Z,66.79
2023-04-06T05:12:12.944Z,67.21
2023-04-06T05:14:14.706Z,66.66
2023-04-06T05:16:17.000Z,66.85
2023-04-06T05:18:20.036Z,67.36
2023-04-06T05:20:22.013Z,67.34
2023-04-06T05:22:23.636Z,67.33
2023-04-06T05:24:26.720Z,67.48
2023-04-06T05:26:28.357Z,67.54
2023-04-06T05:28:31.514Z,67.31
2023-04-06T05:30:33.104Z,67.50
2023-04-06T05:32:35.231Z,67.42
2023-04-06T05:34:37.882Z,66.82
2023-04-06T05:36:40.082Z,67.16
2023-04-06T05:38:42.125Z,66.80
2023-04-06T05:40:49.178Z,66.92
2023-04-06T05:42:53.110Z,66.93
2023-04-06T05:44:56.447Z,67.28
2023-04-06T05:46:58.333Z,66.74
2023-04-06T05:48:59.873Z,66.84
2023-04-06T05:51:01.647Z,66.87
2023-04-06T05:53:03.488Z,66.74
2023-04-06T05:55:05.925Z,66.92
2023-04-06T05:57:07.735Z,66.66
2023-04-06T05:59:10.322Z,66.91
2023-04-06T06:01:13.965Z,67.49
2023-04-06T06:03:15.846Z,66.42
2023-04-06T06:05:18.700Z,67.14
2023-04-06T06:07:20.494Z,66.53
2023-04-06T06:09:22.286Z,66.71
2023-04-06T06:11:23.890Z,66.18
2023-04-06T06:13:25.651Z,66.27
2023-04-06T06:15:27.504Z,65.96
2023-04-06T06:17:31.203Z,66.37
2023-04-06T06:19:33.133Z,65.92
2023-04-06T06:21:34.693Z,66.12
2023-04-06T06:23:36.338Z,65.43
2023-04-06T06:25:38.133Z,65.50
2023-04-06T06:27:39.921Z,65.25
2023-04-06T06:29:41.578Z,65.65
2023-04-06T06:31:43.260Z,64.78
2023-04-06T06:33:46.417Z,65.27
2023-04-06T06:35:48.159Z,64.66
2023-04-06T06:37:49.926Z,65.10
2023-04-06T06:39:51.507Z,64.87
2023-04-06T06:41:53.185Z,64.71
2023-04-06T06:43:54.774Z,64.07
2023-04-06T06:45:56.543Z,64.51
2023-04-06T06:47:58.523Z,64.28
2023-04-06T06:50:01.682Z,63.52
2023-04-06T06:52:03.724Z,63.77
2023-04-06T06:54:05.702Z,63.58
2023-04-06T06:56:07.773Z,62.95
2023-04-06T06:58:09.316Z,62.00
2023-04-06T07:00:13.510Z,62.54
2023-04-06T07:02:15.491Z,62.00
2023-04-06T07:04:17.368Z,61.47
2023-04-06T07:06:21.063Z,61.19
2023-04-06T07:08:26.179Z,61.10
2023-04-06T07:10:28.369Z,61.23
2023-04-06T07:12:30.444Z,60.74
2023-04-06T07:14:32.327Z,61.00
2023-04-06T07:16:34.352Z,60.38
2023-04-06T07:18:36.423Z,59.26
2023-04-06T07:20:38.097Z,58.96
2023-04-06T07:22:43.248Z,58.88
2023-04-06T07:24:46.491Z,59.30
2023-04-06T07:26:48.543Z,59.14
2023-04-06T07:28:50.082Z,58.75
2023-04-06T07:30:51.892Z,58.70
2023-04-06T07:32:53.695Z,56.94
2023-04-06T07:34:55.529Z,56.71
2023-04-06T07:36:57.128Z,56.34
2023-04-06T07:39:00.463Z,55.66
2023-04-06T07:41:02.022Z,56.00
2023-04-06T07:43:03.697Z,56.22
2023-04-06T07:45:07.000Z,55.19
2023-04-06T07:47:08.641Z,54.72
2023-04-06T07:49:10.264Z,54.41
2023-04-06T07:51:12.050Z,54.43
2023-04-06T07:53:13.638Z,53.92
2023-04-06T07:55:16.925Z,53.95
2023-04-06T07:57:19.307Z,53.18
2023-04-06T07:59:20.901Z,53.54
2023-04-06T08:01:22.808Z,53.89
2023-04-06T08:03:24.639Z,52.79
2023-04-06T08:05:26.822Z,52.53
2023-04-06T08:07:28.698Z,51.80
2023-04-06T08:09:30.227Z,51.25
2023-04-06T08:11:33.145Z,51.42
2023-04-06T08:13:34.978Z,50.91
2023-04-06T08:15:36.928Z,50.55
2023-04-06T08:17:38.619Z,50.23
2023-04-06T08:19:40.503Z,50.30
2023-04-06T08:21:42.597Z,49.29
2023-04-06T08:23:44.449Z,49.44
2023-04-06T08:25:46.036Z,48.54
2023-04-06T08:27:49.388Z,48.24
2023-04-06T08:29:51.688Z,48.70
2023-04-06T08:31:53.516Z,48.20
2023-04-06T08:33:55.325Z,47.49
2023-04-06T08:35:56.985Z,47.48
2023-04-06T08:37:58.571Z,46.97
2023-04-06T08:40:00.266Z,47.56
2023-04-06T08:42:02.379Z,47.49
2023-04-06T08:44:05.857Z,46.73
2023-04-06T08:46:07.660Z,46.70
2023-04-06T08:48:09.836Z,46.49
2023-04-06T08:50:11.884Z,46.19
2023-04-06T08:52:13.506Z,46.04
2023-04-06T08:54:15.874Z,46.59
2023-04-06T08:56:17.865Z,45.65
2023-04-06T08:58:34.971Z,44.52
2023-04-06T09:00:41.617Z,45.34
2023-04-06T09:02:46.533Z,45.03
2023-04-06T09:04:49.609Z,43.55
2023-04-06T09:06:51.320Z,42.27
2023-04-06T09:08:53.100Z,43.01
2023-04-06T09:10:54.746Z,42.77
2023-04-06T09:13:04.416Z,45.26
2023-04-06T09:15:07.437Z,43.20
2023-04-06T09:17:21.228Z,45.33
2023-04-06T09:19:22.826Z,42.69
2023-04-06T09:21:25.941Z,42.08
2023-04-06T09:23:27.868Z,40.63
2023-04-06T09:25:29.985Z,40.12
2023-04-06T09:27:32.778Z,40.50
2023-04-06T09:29:34.438Z,40.73
2023-04-06T09:31:36.258Z,40.00
2023-04-06T09:33:40.733Z,39.99
2023-04-06T09:35:51.101Z,41.32
2023-04-06T09:37:53.571Z,38.38
2023-04-06T09:40:04.348Z,41.81
2023-04-06T09:42:06.135Z,38.17
2023-04-06T09:44:09.751Z,38.85
2023-04-06T09:46:12.124Z,36.53
2023-04-06T09:48:13.979Z,36.01
2023-04-06T09:50:17.523Z,33.89
2023-04-06T09:52:21.049Z,35.02
2023-04-06T09:54:27.072Z,34.37
2023-04-06T09:56:32.232Z,33.59
2023-04-06T09:58:37.840Z,33.39
2023-04-06T10:00:48.838Z,35.79
2023-04-06T10:02:56.057Z,35.61
2023-04-06T10:05:02.438Z,33.84
2023-04-06T10:07:08.066Z,33.89
2023-04-06T10:09:10.144Z,33.34
2023-04-06T10:11:11.973Z,32.88
2023-04-06T10:13:13.909Z,33.51
2023-04-06T10:15:15.503Z,31.12
2023-04-06T10:17:17.096Z,33.43
2023-04-06T10:19:24.713Z,34.24
2023-04-06T10:21:28.915Z,33.71
2023-04-06T10:23:35.067Z,33.83
2023-04-06T10:25:36.760Z,31.57
2023-04-06T10:27:38.803Z,32.20
2023-04-06T10:29:47.847Z,34.47
2023-04-06T10:31:50.143Z,30.87
2023-04-06T10:33:55.353Z,32.61
2023-04-06T10:35:57.568Z,31.36
2023-04-06T10:38:03.442Z,31.48
2023-04-06T10:40:18.703Z,31.43
2023-04-06T10:42:25.201Z,32.16
2023-04-06T10:44:26.818Z,28.84
2023-04-06T10:46:29.510Z,30.79
2023-04-06T10:49:11.088Z,32.28
2023-04-06T10:51:14.315Z,30.27
2023-04-06T10:53:22.764Z,31.28
2023-04-06T10:55:27.091Z,30.34
2023-04-06T10:57:29.203Z,29.65
2023-04-06T10:59:31.462Z,29.56
2023-04-06T11:01:33.600Z,29.53
2023-04-06T11:03:44.187Z,32.95
2023-04-06T11:05:47.726Z,29.94
2023-04-06T11:07:49.876Z,28.38
2023-04-06T11:10:11.291Z,28.05
2023-04-06T11:12:23.962Z,32.22
2023-04-06T11:14:25.754Z,29.20
2023-04-06T11:16:29.370Z,28.78
2023-04-06T11:18:31.076Z,27.21
2023-04-06T11:20:32.717Z,27.12
2023-04-06T11:22:34.311Z,27.50
2023-04-06T11:24:36.127Z,27.98
2023-04-06T11:26:41.997Z,27.23
2023-04-06T11:28:45.171Z,27.04
2023-04-06T11:30:47.955Z,27.33
2023-04-06T11:32:49.902Z,27.63
2023-04-06T11:34:51.539Z,27.75
2023-04-06T11:36:57.151Z,27.34
2023-04-06T11:38:59.001Z,26.19
2023-04-06T11:41:02.325Z,26.38
2023-04-06T11:43:05.342Z,26.04
2023-04-06T11:45:10.089Z,27.49
2023-04-06T11:47:12.669Z,26.49
2023-04-06T11:49:17.038Z,26.15
2023-04-06T11:51:23.400Z,27.08
2023-04-06T11:53:25.342Z,26.18
2023-04-06T11:55:27.303Z,25.38
2023-04-06T11:57:30.620Z,26.65
2023-04-06T11:59:32.340Z,24.44
2023-04-06T12:01:39.253Z,25.15
2023-04-06T12:03:41.398Z,24.56
2023-04-06T12:05:43.814Z,24.47
2023-04-06T12:07:45.467Z,24.63
2023-04-06T12:09:47.314Z,25.22
2023-04-06T12:11:49.130Z,25.01
2023-04-06T12:13:50.706Z,25.00
2023-04-06T12:15:52.386Z,25.91
2023-04-06T12:17:55.571Z,25.86
2023-04-06T12:20:05.142Z,24.81
2023-04-06T12:22:11.272Z,24.90
2023-04-06T12:24:12.860Z,24.98
2023-04-06T12:26:14.706Z,24.24
2023-04-06T12:28:16.363Z,25.50
2023-04-06T12:30:18.605Z,26.00
2023-04-06T12:32:20.417Z,24.87
2023-04-06T12:34:23.624Z,25.18
2023-04-06T12:36:25.273Z,25.56
2023-04-06T12:38:27.549Z,25.03
2023-04-06T12:40:29.144Z,25.40
2023-04-06T12:42:30.969Z,23.87
2023-04-06T12:44:32.796Z,24.13
2023-04-06T12:46:34.655Z,25.28
2023-04-06T12:48:36.812Z,25.92
2023-04-06T12:50:40.226Z,25.87
2023-04-06T12:52:42.101Z,25.92
2023-04-06T12:54:43.694Z,26.07
2023-04-06T12:56:45.574Z,25.60
2023-04-06T12:58:47.419Z,25.70
2023-04-06T13:00:50.517Z,24.21
2023-04-06T13:02:52.464Z,24.87
2023-04-06T13:04:54.184Z,24.86
2023-04-06T13:06:57.699Z,26.31
2023-04-06T13:08:59.539Z,25.55
2023-04-06T13:11:01.617Z,25.76
2023-04-06T13:13:03.265Z,24.79
2023-04-06T13:15:06.187Z,25.21
2023-04-06T13:17:08.421Z,24.76
2023-04-06T13:19:10.313Z,24.99
2023-04-06T13:21:15.402Z,25.87
2023-04-06T13:23:18.384Z,25.55
2023-04-06T13:25:19.986Z,25.96
2023-04-06T13:27:21.583Z,25.25
2023-04-06T13:29:23.389Z,25.38
2023-04-06T13:31:25.367Z,24.65
2023-04-06T13:33:27.386Z,25.31
2023-04-06T13:35:29.039Z,25.41
2023-04-06T13:37:30.660Z,25.38
2023-04-06T13:39:34.080Z,26.73
2023-04-06T13:41:35.917Z,26.23
2023-04-06T13:43:37.561Z,25.09
2023-04-06T13:45:40.677Z,25.31
2023-04-06T13:47:42.361Z,25.65
2023-04-06T13:49:44.130Z,24.88
2023-04-06T13:51:45.731Z,25.71
2023-04-06T13:53:47.425Z,25.38
2023-04-06T13:55:55.278Z,27.50
2023-04-06T13:57:57.107Z,25.92
2023-04-06T13:59:59.095Z,25.51
2023-04-06T14:02:01.291Z,25.25
2023-04-06T14:04:03.464Z,26.17
2023-04-06T14:08:17.373Z,25.48
2023-04-06T14:10:18.971Z,25.92
2023-04-06T14:12:22.095Z,26.57
2023-04-06T14:14:24.863Z,26.72
2023-04-06T14:16:26.641Z,26.95
2023-04-06T14:18:28.469Z,29.72
2023-04-06T14:20:33.362Z,29.60
2023-04-06T14:22:35.820Z,30.63
2023-04-06T14:24:37.452Z,29.69
2023-04-06T14:26:40.903Z,30.13
2023-04-06T14:28:44.453Z,28.77
2023-04-06T14:30:46.053Z,27.73
2023-04-06T14:32:47.929Z,28.39
2023-04-06T14:34:49.814Z,28.55
2023-04-06T14:36:51.914Z,28.86
2023-04-06T14:38:53.583Z,28.55
2023-04-06T14:40:55.223Z,28.95
2023-04-06T14:42:57.865Z,28.47
2023-04-06T14:45:01.404Z,28.29
2023-04-06T14:47:04.478Z,28.88
2023-04-06T14:49:06.862Z,29.49
2023-04-06T14:51:08.787Z,30.48
2023-04-06T14:53:10.367Z,30.24
2023-04-06T14:55:12.441Z,30.72
2023-04-06T14:57:14.658Z,30.86
2023-04-06T14:59:16.439Z,31.21
2023-04-06T15:01:20.354Z,32.51
2023-04-06T15:03:22.822Z,32.87
2023-04-06T15:05:24.899Z,32.46
2023-04-06T15:07:26.557Z,32.65
2023-04-06T15:09:28.373Z,32.61
2023-04-06T15:11:30.941Z,32.40
2023-04-06T15:13:32.525Z,32.65
2023-04-06T15:15:34.500Z,32.26
2023-04-06T15:17:37.488Z,32.52
2023-04-06T15:19:39.084Z,32.18
2023-04-06T15:21:41.284Z,32.38
2023-04-06T15:23:42.922Z,32.26
2023-04-06T15:25:44.815Z,31.96
2023-04-06T15:27:46.551Z,32.68
2023-04-06T15:29:48.263Z,32.90
2023-04-06T15:31:49.976Z,32.86
2023-04-06T15:33:53.135Z,32.82
2023-04-06T15:35:55.034Z,32.78
2023-04-06T15:37:57.021Z,33.11
2023-04-06T15:40:00.301Z,34.24
2023-04-06T15:42:03.602Z,34.45
2023-04-06T15:44:05.502Z,34.50
2023-04-06T15:48:09.582Z,34.96
2023-04-06T15:50:14.312Z,34.48
2023-04-06T15:52:16.161Z,34.66
2023-04-06T15:54:18.139Z,34.07
2023-04-06T15:56:19.991Z,33.47
2023-04-06T15:58:22.031Z,33.86
2023-04-06T16:00:23.916Z,34.46
2023-04-06T16:02:26.297Z,34.38
2023-04-06T16:04:28.459Z,34.75
2023-04-06T16:06:31.410Z,34.35
2023-04-06T16:08:33.051Z,34.85
2023-04-06T16:10:34.819Z,35.06
2023-04-06T16:12:36.444Z,35.29
2023-04-06T16:14:38.113Z,35.59
2023-04-06T16:16:40.749Z,36.08
2023-04-06T16:18:42.739Z,35.60
2023-04-06T16:20:44.343Z,35.31
2023-04-06T16:22:47.509Z,35.96
2023-04-06T16:24:49.141Z,36.39
2023-04-06T16:26:50.981Z,36.29
2023-04-06T16:28:52.666Z,36.20
2023-04-06T16:30:54.429Z,36.75
2023-04-06T16:32:56.337Z,36.96
2023-04-06T16:34:57.962Z,36.72
2023-04-06T16:36:59.670Z,36.89
2023-04-06T16:39:03.076Z,37.05
2023-04-06T16:41:04.896Z,37.20
2023-04-06T16:43:06.466Z,36.98
2023-04-06T16:45:08.483Z,37.00
2023-04-06T16:47:10.051Z,37.37
2023-04-06T16:49:11.861Z,37.54
2023-04-06T16:51:13.715Z,37.32
2023-04-06T16:53:15.318Z,37.07
2023-04-06T16:55:18.917Z,37.50
2023-04-06T16:57:20.691Z,37.04
2023-04-06T16:59:22.729Z,37.50
2023-04-06T17:01:28.306Z,37.42
2023-04-06T17:03:30.842Z,37.22
2023-04-06T17:05:32.714Z,37.95
2023-04-06T17:07:34.321Z,37.86
2023-04-06T17:09:36.140Z,38.81
2023-04-06T17:11:46.533Z,38.53
2023-04-06T17:13:50.110Z,39.38
2023-04-06T17:15:51.735Z,39.22
2023-04-06T17:17:53.648Z,38.95
2023-04-06T17:19:55.247Z,40.13
2023-04-06T17:21:56.993Z,39.59
2023-04-06T17:23:58.611Z,39.84
2023-04-06T17:26:04.011Z,40.06
2023-04-06T17:28:08.441Z,39.76
2023-04-06T17:30:11.464Z,40.27
2023-04-06T17:32:13.327Z,40.73
2023-04-06T17:34:14.987Z,41.19
2023-04-06T17:36:16.842Z,41.88
2023-04-06T17:38:18.603Z,41.33
2023-04-06T17:40:20.225Z,42.13
2023-04-06T17:44:24.912Z,42.19
2023-04-06T17:46:26.560Z,42.22
2023-04-06T17:48:28.319Z,43.61
2023-04-06T17:50:29.935Z,43.38
2023-04-06T17:52:32.436Z,44.09
2023-04-06T17:54:34.753Z,43.61
2023-04-06T17:56:36.403Z,43.81
2023-04-06T17:58:38.523Z,44.45
2023-04-06T18:00:41.710Z,44.35
2023-04-06T18:02:43.409Z,44.90
2023-04-06T18:04:45.230Z,45.32
2023-04-06T18:06:47.279Z,45.75
2023-04-06T18:08:49.043Z,45.32
2023-04-06T18:10:50.924Z,45.99
2023-04-06T18:12:52.781Z,46.36
2023-04-06T18:14:54.638Z,46.16
2023-04-06T18:16:57.647Z,46.39
2023-04-06T18:19:00.575Z,46.69
2023-04-06T18:21:03.920Z,46.29
2023-04-06T18:23:05.761Z,46.71
2023-04-06T18:25:08.725Z,46.69
2023-04-06T18:27:11.063Z,47.27
2023-04-06T18:29:12.903Z,46.61
2023-04-06T18:31:14.730Z,47.45
2023-04-06T18:33:17.655Z,47.56
2023-04-06T18:35:19.725Z,47.70
2023-04-06T18:37:21.554Z,47.33
2023-04-06T18:39:23.099Z,48.08
2023-04-06T18:41:24.719Z,47.50
2023-04-06T18:43:26.480Z,48.17
2023-04-06T18:45:28.055Z,48.15
2023-04-06T18:47:30.085Z,48.65
2023-04-06T18:49:33.460Z,48.28
2023-04-06T18:51:35.036Z,48.16
2023-04-06T18:53:38.537Z,49.04
2023-04-06T18:55:41.710Z,48.65
2023-04-06T18:57:43.561Z,49.44
2023-04-06T18:59:45.348Z,49.02
2023-04-06T19:01:47.367Z,49.44
2023-04-06T19:03:49.202Z,49.79
2023-04-06T19:05:52.504Z,50.54
2023-04-06T19:07:54.361Z,50.09
2023-04-06T19:09:56.391Z,50.10
2023-04-06T19:11:58.102Z,50.46
2023-04-06T19:14:00.234Z,50.76
2023-04-06T19:16:02.095Z,50.56
2023-04-06T19:18:04.059Z,50.39
2023-04-06T19:20:07.243Z,50.50
2023-04-06T19:22:10.440Z,50.75
2023-04-06T19:24:12.230Z,50.72
2023-04-06T19:26:14.911Z,51.21
2023-04-06T19:28:16.731Z,51.21
2023-04-06T19:30:18.356Z,50.61
2023-04-06T19:32:20.065Z,51.10
2023-04-06T19:34:21.782Z,51.53
2023-04-06T19:36:23.687Z,51.16
2023-04-06T19:38:28.457Z,50.54
2023-04-06T19:40:30.827Z,51.73
2023-04-06T19:42:32.670Z,52.02
2023-04-06T19:44:34.481Z,51.28
2023-04-06T19:46:36.622Z,52.25
2023-04-06T19:48:38.270Z,51.83
2023-04-06T19:50:40.139Z,52.80
2023-04-06T19:52:41.699Z,52.24
2023-04-06T19:54:45.346Z,52.53
2023-04-06T19:56:46.896Z,52.78
2023-04-06T19:58:48.962Z,52.72
2023-04-06T20:00:50.833Z,53.17
2023-04-06T20:02:53.048Z,52.45
2023-04-06T20:04:55.055Z,53.34
2023-04-06T20:06:57.261Z,53.32
2023-04-06T20:08:59.297Z,53.29
2023-04-06T20:11:04.750Z,53.14
2023-04-06T20:13:06.665Z,53.22
2023-04-06T20:15:09.389Z,53.84
2023-04-06T20:17:11.024Z,53.25
2023-04-06T20:19:12.915Z,52.87
2023-04-06T20:21:17.186Z,54.02
2023-04-06T20:23:19.013Z,53.21
2023-04-06T20:25:20.642Z,53.54
2023-04-06T20:27:23.749Z,54.08
2023-04-06T20:29:25.797Z,53.95
2023-04-06T20:31:27.876Z,54.18
2023-04-06T20:33:29.518Z,54.10
2023-04-06T20:35:31.427Z,54.29
2023-04-06T20:37:34.282Z,54.15
2023-04-06T20:39:36.136Z,54.28
2023-04-06T20:41:37.769Z,55.32
2023-04-06T20:43:40.706Z,54.99
2023-04-06T20:45:42.667Z,55.03
2023-04-06T20:47:44.607Z,54.94
2023-04-06T20:49:46.389Z,54.48
2023-04-06T20:51:48.013Z,55.36
2023-04-06T20:53:49.816Z,55.58
2023-04-06T20:55:51.647Z,55.99
2023-04-06T20:57:53.575Z,55.36
2023-04-06T20:59:56.572Z,55.49
2023-04-06T21:01:58.272Z,55.86
2023-04-06T21:04:14.482Z,55.84
2023-04-06T21:06:16.162Z,55.62
2023-04-06T21:08:17.748Z,56.00
2023-04-06T21:10:19.591Z,55.83
2023-04-06T21:12:21.227Z,56.19
2023-04-06T21:14:23.901Z,56.20
2023-04-06T21:16:27.455Z,56.62
2023-04-06T21:18:30.343Z,56.60
2023-04-06T21:20:32.179Z,56.10
2023-04-06T21:22:34.441Z,57.04
2023-04-06T21:24:36.091Z,57.42
2023-04-06T21:26:37.689Z,57.26
2023-04-06T21:28:39.243Z,56.90
2023-04-06T21:30:41.793Z,57.43
2023-04-06T21:32:45.596Z,57.43
2023-04-06T21:34:47.533Z,57.66
2023-04-06T21:36:50.425Z,57.86
2023-04-06T21:38:52.255Z,57.44
2023-04-06T21:40:54.981Z,57.50
2023-04-06T21:42:56.614Z,57.82
2023-04-06T21:44:59.097Z,57.02
2023-04-06T21:47:01.940Z,57.83
2023-04-06T21:49:05.322Z,57.51
2023-04-06T21:51:06.973Z,57.53
2023-04-06T21:53:09.238Z,57.18
2023-04-06T21:55:11.114Z,57.23
2023-04-06T21:57:12.889Z,58.09
2023-04-06T21:59:14.908Z,57.99
2023-04-06T22:01:16.894Z,58.31
2023-04-06T22:03:18.608Z,58.40
2023-04-06T22:05:21.874Z,58.50
2023-04-06T22:07:23.766Z,58.32
2023-04-06T22:09:25.965Z,58.66
2023-04-06T22:11:27.527Z,59.61
2023-04-06T22:13:29.232Z,59.23
2023-04-06T22:15:31.087Z,59.11
2023-04-06T22:17:33.420Z,59.13
2023-04-06T22:19:35.527Z,59.53
2023-04-06T22:21:38.910Z,59.44
2023-04-06T22:23:40.722Z,60.43
2023-04-06T22:25:42.439Z,60.11
2023-04-06T22:27:44.326Z,60.32
2023-04-06T22:29:45.931Z,59.55
2023-04-06T22:31:47.618Z,59.75
2023-04-06T22:33:49.545Z,60.22
2023-04-06T22:35:51.412Z,60.13
2023-04-06T22:37:54.558Z,60.46
2023-04-06T22:39:57.119Z,60.48
2023-04-06T22:42:05.007Z,59.09
2023-04-06T22:44:06.523Z,60.82
2023-04-06T22:46:08.556Z,60.61
2023-04-06T22:48:10.217Z,61.45
2023-04-06T22:50:12.194Z,61.18
2023-04-06T22:52:13.841Z,61.97
2023-04-06T22:54:16.992Z,62.17
2023-04-06T22:56:18.557Z,61.93
2023-04-06T22:58:20.161Z,61.70
2023-04-06T23:00:22.165Z,61.59
2023-04-06T23:02:23.812Z,60.88
2023-04-06T23:04:26.018Z,61.98
2023-04-06T23:06:28.141Z,62.78
2023-04-06T23:08:29.946Z,61.92
2023-04-06T23:10:33.320Z,62.02
2023-04-06T23:12:35.262Z,62.23
2023-04-06T23:14:37.309Z,62.05
2023-04-06T23:16:39.194Z,62.09
2023-04-06T23:18:42.317Z,62.57
2023-04-06T23:20:43.854Z,62.24
2023-04-06T23:22:46.078Z,61.88
2023-04-06T23:24:47.682Z,62.40
2023-04-06T23:26:50.918Z,62.35
2023-04-06T23:28:52.548Z,61.84
2023-04-06T23:30:54.433Z,62.13
2023-04-06T23:32:56.337Z,61.71
2023-04-06T23:34:57.964Z,61.92
2023-04-06T23:36:59.610Z,61.99
2023-04-06T23:39:01.560Z,62.59
2023-04-06T23:41:03.142Z,62.45
2023-04-06T23:43:06.539Z,62.60
2023-04-06T23:45:09.355Z,62.10
2023-04-06T23:47:11.096Z,62.64
2023-04-06T23:49:12.794Z,62.74
2023-04-06T23:51:14.612Z,62.67
2023-04-06T23:53:16.470Z,62.09
2023-04-06T23:55:18.491Z,62.46
2023-04-06T23:57:20.083Z,62.42
2023-04-06T23:59:23.287Z,62.72
